sensor_id;sensor_type;location;lat;lon;timestamp;P1;durP1;ratioP1;P2;durP2;ratioP2
2213;SDS011;1113;42.018;23.986;2023-09-18T00:00:46;20.87;;;18.63;;
2213;SDS011;1113;42.018;23.986;2023-09-18T00:03:16;21.53;;;18.30;;
2213;SDS011;1113;42.018;23.986;2023-09-18T00:05:44;22.37;;;18.37;;
2213;SDS011;1113;42.018;23.986;2023-09-18T00:08:13;23.70;;;18.50;;
2213;SDS011;1113;42.018;23.986;2023-09-18T00:10:40;20.70;;;17.77;;
2213;SDS011;1113;42.018;23.986;2023-09-18T00:13:08;20.97;;;18.20;;
2213;SDS011;1113;42.018;23.986;2023-09-18T00:15:35;24.57;;;18.97;;
2213;SDS011;1113;42.018;23.986;2023-09-18T00:18:03;24.23;;;18.60;;
2213;SDS011;1113;42.018;23.986;2023-09-18T00:20:32;22.30;;;18.60;;
2213;SDS011;1113;42.018;23.986;2023-09-18T00:23:00;21.70;;;17.60;;
2213;SDS011;1113;42.018;23.986;2023-09-18T00:25:28;19.80;;;17.40;;
2213;SDS011;1113;42.018;23.986;2023-09-18T00:27:56;23.53;;;17.70;;
2213;SDS011;1113;42.018;23.986;2023-09-18T00:30:23;22.00;;;17.60;;
2213;SDS011;1113;42.018;23.986;2023-09-18T00:32:50;23.70;;;19.67;;
2213;SDS011;1113;42.018;23.986;2023-09-18T00:35:17;22.47;;;17.90;;
2213;SDS011;1113;42.018;23.986;2023-09-18T00:37:45;23.43;;;18.93;;
2213;SDS011;1113;42.018;23.986;2023-09-18T00:40:12;22.63;;;18.53;;
2213;SDS011;1113;42.018;23.986;2023-09-18T00:42:40;24.47;;;19.20;;
2213;SDS011;1113;42.018;23.986;2023-09-18T00:45:07;23.83;;;19.10;;
2213;SDS011;1113;42.018;23.986;2023-09-18T00:47:35;23.40;;;18.17;;
2213;SDS011;1113;42.018;23.986;2023-09-18T00:50:03;23.27;;;18.10;;
2213;SDS011;1113;42.018;23.986;2023-09-18T00:52:32;23.10;;;18.00;;
2213;SDS011;1113;42.018;23.986;2023-09-18T00:55:02;20.50;;;18.13;;
2213;SDS011;1113;42.018;23.986;2023-09-18T00:57:29;20.60;;;17.50;;
2213;SDS011;1113;42.018;23.986;2023-09-18T00:59:56;23.67;;;18.70;;
2213;SDS011;1113;42.018;23.986;2023-09-18T01:02:23;21.60;;;18.40;;
2213;SDS011;1113;42.018;23.986;2023-09-18T01:04:51;21.43;;;18.50;;
2213;SDS011;1113;42.018;23.986;2023-09-18T01:07:19;19.70;;;17.23;;
2213;SDS011;1113;42.018;23.986;2023-09-18T01:09:46;22.97;;;18.30;;
2213;SDS011;1113;42.018;23.986;2023-09-18T01:12:16;25.60;;;19.57;;
2213;SDS011;1113;42.018;23.986;2023-09-18T01:14:49;23.77;;;18.03;;
2213;SDS011;1113;42.018;23.986;2023-09-18T01:17:23;23.50;;;18.90;;
2213;SDS011;1113;42.018;23.986;2023-09-18T01:19:52;24.00;;;17.60;;
2213;SDS011;1113;42.018;23.986;2023-09-18T01:22:19;23.53;;;17.80;;
2213;SDS011;1113;42.018;23.986;2023-09-18T01:24:48;19.90;;;17.40;;
2213;SDS011;1113;42.018;23.986;2023-09-18T01:27:15;25.73;;;18.37;;
2213;SDS011;1113;42.018;23.986;2023-09-18T01:29:44;22.30;;;18.00;;
2213;SDS011;1113;42.018;23.986;2023-09-18T01:32:11;23.00;;;18.30;;
2213;SDS011;1113;42.018;23.986;2023-09-18T01:34:39;20.80;;;17.63;;
2213;SDS011;1113;42.018;23.986;2023-09-18T01:37:09;21.07;;;18.30;;
2213;SDS011;1113;42.018;23.986;2023-09-18T01:39:37;21.60;;;18.17;;
2213;SDS011;1113;42.018;23.986;2023-09-18T01:42:07;21.80;;;18.70;;
2213;SDS011;1113;42.018;23.986;2023-09-18T01:44:36;25.00;;;20.77;;
2213;SDS011;1113;42.018;23.986;2023-09-18T01:47:04;27.37;;;21.90;;
2213;SDS011;1113;42.018;23.986;2023-09-18T01:49:34;27.57;;;20.27;;
2213;SDS011;1113;42.018;23.986;2023-09-18T01:52:02;24.43;;;20.40;;
2213;SDS011;1113;42.018;23.986;2023-09-18T01:54:30;24.67;;;19.60;;
2213;SDS011;1113;42.018;23.986;2023-09-18T01:56:57;28.57;;;21.77;;
2213;SDS011;1113;42.018;23.986;2023-09-18T01:59:26;28.57;;;21.80;;
2213;SDS011;1113;42.018;23.986;2023-09-18T02:01:54;25.67;;;20.63;;
2213;SDS011;1113;42.018;23.986;2023-09-18T02:04:21;26.73;;;22.10;;
2213;SDS011;1113;42.018;23.986;2023-09-18T02:06:50;28.70;;;21.60;;
2213;SDS011;1113;42.018;23.986;2023-09-18T02:09:18;29.10;;;22.20;;
2213;SDS011;1113;42.018;23.986;2023-09-18T02:11:46;28.00;;;21.90;;
2213;SDS011;1113;42.018;23.986;2023-09-18T02:14:14;34.37;;;29.50;;
2213;SDS011;1113;42.018;23.986;2023-09-18T02:16:43;33.23;;;26.10;;
2213;SDS011;1113;42.018;23.986;2023-09-18T02:19:10;32.27;;;26.40;;
2213;SDS011;1113;42.018;23.986;2023-09-18T02:21:39;27.80;;;23.27;;
2213;SDS011;1113;42.018;23.986;2023-09-18T02:24:06;29.53;;;23.40;;
2213;SDS011;1113;42.018;23.986;2023-09-18T02:26:34;28.90;;;22.47;;
2213;SDS011;1113;42.018;23.986;2023-09-18T02:29:04;31.00;;;25.23;;
2213;SDS011;1113;42.018;23.986;2023-09-18T02:31:33;27.10;;;24.17;;
2213;SDS011;1113;42.018;23.986;2023-09-18T02:34:01;32.27;;;23.20;;
2213;SDS011;1113;42.018;23.986;2023-09-18T02:36:28;31.40;;;25.23;;
2213;SDS011;1113;42.018;23.986;2023-09-18T02:38:55;30.10;;;26.80;;
2213;SDS011;1113;42.018;23.986;2023-09-18T02:41:22;30.03;;;24.10;;
2213;SDS011;1113;42.018;23.986;2023-09-18T02:43:49;28.57;;;24.00;;
2213;SDS011;1113;42.018;23.986;2023-09-18T02:46:16;28.73;;;24.43;;
2213;SDS011;1113;42.018;23.986;2023-09-18T02:48:43;29.13;;;23.67;;
2213;SDS011;1113;42.018;23.986;2023-09-18T02:51:12;29.70;;;24.00;;
2213;SDS011;1113;42.018;23.986;2023-09-18T02:53:39;32.33;;;24.83;;
2213;SDS011;1113;42.018;23.986;2023-09-18T02:56:06;30.07;;;25.13;;
2213;SDS011;1113;42.018;23.986;2023-09-18T02:58:33;32.90;;;26.73;;
2213;SDS011;1113;42.018;23.986;2023-09-18T03:01:01;32.80;;;25.97;;
2213;SDS011;1113;42.018;23.986;2023-09-18T03:03:30;28.03;;;23.50;;
2213;SDS011;1113;42.018;23.986;2023-09-18T03:06:00;28.13;;;22.40;;
2213;SDS011;1113;42.018;23.986;2023-09-18T03:08:30;30.83;;;22.50;;
2213;SDS011;1113;42.018;23.986;2023-09-18T03:10:57;26.40;;;21.30;;
2213;SDS011;1113;42.018;23.986;2023-09-18T03:13:25;28.57;;;21.23;;
2213;SDS011;1113;42.018;23.986;2023-09-18T03:15:53;25.10;;;19.33;;
2213;SDS011;1113;42.018;23.986;2023-09-18T03:18:20;24.17;;;19.50;;
2213;SDS011;1113;42.018;23.986;2023-09-18T03:20:47;25.63;;;20.80;;
2213;SDS011;1113;42.018;23.986;2023-09-18T03:23:14;29.73;;;21.63;;
2213;SDS011;1113;42.018;23.986;2023-09-18T03:25:43;26.30;;;20.50;;
2213;SDS011;1113;42.018;23.986;2023-09-18T03:28:12;28.80;;;21.60;;
2213;SDS011;1113;42.018;23.986;2023-09-18T03:30:39;27.20;;;21.70;;
2213;SDS011;1113;42.018;23.986;2023-09-18T03:33:06;32.20;;;23.77;;
2213;SDS011;1113;42.018;23.986;2023-09-18T03:35:34;31.00;;;23.80;;
2213;SDS011;1113;42.018;23.986;2023-09-18T03:38:12;28.87;;;22.87;;
2213;SDS011;1113;42.018;23.986;2023-09-18T03:40:39;31.40;;;23.43;;
2213;SDS011;1113;42.018;23.986;2023-09-18T03:43:09;31.63;;;21.70;;
2213;SDS011;1113;42.018;23.986;2023-09-18T03:45:37;28.10;;;22.77;;
2213;SDS011;1113;42.018;23.986;2023-09-18T03:48:06;29.53;;;23.33;;
2213;SDS011;1113;42.018;23.986;2023-09-18T03:50:33;30.30;;;22.90;;
2213;SDS011;1113;42.018;23.986;2023-09-18T03:53:00;29.27;;;23.43;;
2213;SDS011;1113;42.018;23.986;2023-09-18T03:55:27;27.87;;;22.43;;
2213;SDS011;1113;42.018;23.986;2023-09-18T03:57:55;27.13;;;23.17;;
2213;SDS011;1113;42.018;23.986;2023-09-18T04:00:23;32.97;;;24.40;;
2213;SDS011;1113;42.018;23.986;2023-09-18T04:02:51;30.10;;;24.57;;
2213;SDS011;1113;42.018;23.986;2023-09-18T04:05:18;27.87;;;22.37;;
2213;SDS011;1113;42.018;23.986;2023-09-18T04:07:46;29.93;;;23.93;;
2213;SDS011;1113;42.018;23.986;2023-09-18T04:10:13;29.20;;;23.80;;
2213;SDS011;1113;42.018;23.986;2023-09-18T04:12:45;30.37;;;22.40;;
2213;SDS011;1113;42.018;23.986;2023-09-18T04:15:13;27.93;;;22.07;;
2213;SDS011;1113;42.018;23.986;2023-09-18T04:17:44;29.20;;;22.93;;
2213;SDS011;1113;42.018;23.986;2023-09-18T04:20:11;29.53;;;22.63;;
2213;SDS011;1113;42.018;23.986;2023-09-18T04:22:41;33.63;;;23.80;;
2213;SDS011;1113;42.018;23.986;2023-09-18T04:25:10;31.70;;;23.17;;
2213;SDS011;1113;42.018;23.986;2023-09-18T04:27:37;28.60;;;22.90;;
2213;SDS011;1113;42.018;23.986;2023-09-18T04:30:05;30.20;;;22.93;;
2213;SDS011;1113;42.018;23.986;2023-09-18T04:32:34;30.70;;;24.43;;
2213;SDS011;1113;42.018;23.986;2023-09-18T04:35:03;32.13;;;23.20;;
2213;SDS011;1113;42.018;23.986;2023-09-18T04:37:33;33.10;;;25.07;;
2213;SDS011;1113;42.018;23.986;2023-09-18T04:40:04;31.20;;;23.80;;
2213;SDS011;1113;42.018;23.986;2023-09-18T04:42:34;33.67;;;24.20;;
2213;SDS011;1113;42.018;23.986;2023-09-18T04:45:02;30.27;;;23.20;;
2213;SDS011;1113;42.018;23.986;2023-09-18T04:47:30;28.20;;;22.23;;
2213;SDS011;1113;42.018;23.986;2023-09-18T04:49:58;29.73;;;23.00;;
2213;SDS011;1113;42.018;23.986;2023-09-18T04:52:27;27.20;;;21.20;;
2213;SDS011;1113;42.018;23.986;2023-09-18T04:54:54;27.40;;;21.77;;
2213;SDS011;1113;42.018;23.986;2023-09-18T04:57:22;27.47;;;21.50;;
2213;SDS011;1113;42.018;23.986;2023-09-18T04:59:49;30.50;;;21.90;;
2213;SDS011;1113;42.018;23.986;2023-09-18T05:02:17;31.50;;;21.60;;
2213;SDS011;1113;42.018;23.986;2023-09-18T05:04:44;25.70;;;20.60;;
2213;SDS011;1113;42.018;23.986;2023-09-18T05:07:12;26.53;;;20.80;;
2213;SDS011;1113;42.018;23.986;2023-09-18T05:09:41;25.00;;;19.07;;
2213;SDS011;1113;42.018;23.986;2023-09-18T05:12:09;20.27;;;17.57;;
2213;SDS011;1113;42.018;23.986;2023-09-18T05:14:39;21.43;;;16.20;;
2213;SDS011;1113;42.018;23.986;2023-09-18T05:17:08;21.13;;;17.23;;
2213;SDS011;1113;42.018;23.986;2023-09-18T05:19:37;20.57;;;14.97;;
2213;SDS011;1113;42.018;23.986;2023-09-18T05:22:04;23.53;;;16.33;;
2213;SDS011;1113;42.018;23.986;2023-09-18T05:24:31;20.47;;;15.50;;
2213;SDS011;1113;42.018;23.986;2023-09-18T05:27:00;22.93;;;16.03;;
2213;SDS011;1113;42.018;23.986;2023-09-18T05:29:28;21.97;;;16.80;;
2213;SDS011;1113;42.018;23.986;2023-09-18T05:31:55;20.67;;;14.73;;
2213;SDS011;1113;42.018;23.986;2023-09-18T05:34:22;19.80;;;15.57;;
2213;SDS011;1113;42.018;23.986;2023-09-18T05:36:49;22.57;;;15.30;;
2213;SDS011;1113;42.018;23.986;2023-09-18T05:39:17;22.07;;;14.90;;
2213;SDS011;1113;42.018;23.986;2023-09-18T05:41:45;20.77;;;15.73;;
2213;SDS011;1113;42.018;23.986;2023-09-18T05:44:13;19.80;;;14.77;;
2213;SDS011;1113;42.018;23.986;2023-09-18T05:46:40;21.80;;;15.60;;
2213;SDS011;1113;42.018;23.986;2023-09-18T05:49:07;21.13;;;15.27;;
2213;SDS011;1113;42.018;23.986;2023-09-18T05:51:35;19.00;;;15.00;;
2213;SDS011;1113;42.018;23.986;2023-09-18T05:54:02;24.70;;;16.73;;
2213;SDS011;1113;42.018;23.986;2023-09-18T05:56:30;18.27;;;15.13;;
2213;SDS011;1113;42.018;23.986;2023-09-18T05:58:57;18.73;;;15.00;;
2213;SDS011;1113;42.018;23.986;2023-09-18T06:01:25;19.87;;;16.00;;
2213;SDS011;1113;42.018;23.986;2023-09-18T06:03:53;17.70;;;13.13;;
2213;SDS011;1113;42.018;23.986;2023-09-18T06:06:20;19.13;;;13.83;;
2213;SDS011;1113;42.018;23.986;2023-09-18T06:08:47;19.03;;;14.23;;
2213;SDS011;1113;42.018;23.986;2023-09-18T06:11:14;19.73;;;14.27;;
2213;SDS011;1113;42.018;23.986;2023-09-18T06:13:42;18.77;;;13.43;;
2213;SDS011;1113;42.018;23.986;2023-09-18T06:16:09;17.77;;;13.97;;
2213;SDS011;1113;42.018;23.986;2023-09-18T06:18:38;19.23;;;14.47;;
2213;SDS011;1113;42.018;23.986;2023-09-18T06:21:05;20.13;;;15.07;;
2213;SDS011;1113;42.018;23.986;2023-09-18T06:23:33;19.23;;;14.60;;
2213;SDS011;1113;42.018;23.986;2023-09-18T06:26:00;22.83;;;15.00;;
2213;SDS011;1113;42.018;23.986;2023-09-18T06:28:28;17.33;;;13.07;;
2213;SDS011;1113;42.018;23.986;2023-09-18T06:30:55;17.70;;;14.30;;
2213;SDS011;1113;42.018;23.986;2023-09-18T06:33:22;20.37;;;15.67;;
2213;SDS011;1113;42.018;23.986;2023-09-18T06:35:51;21.33;;;16.80;;
2213;SDS011;1113;42.018;23.986;2023-09-18T06:38:19;23.83;;;16.57;;
2213;SDS011;1113;42.018;23.986;2023-09-18T06:40:46;22.13;;;17.27;;
2213;SDS011;1113;42.018;23.986;2023-09-18T06:43:15;20.40;;;16.10;;
2213;SDS011;1113;42.018;23.986;2023-09-18T06:45:42;25.37;;;17.50;;
2213;SDS011;1113;42.018;23.986;2023-09-18T06:48:09;22.50;;;17.70;;
2213;SDS011;1113;42.018;23.986;2023-09-18T06:50:37;28.03;;;18.30;;
2213;SDS011;1113;42.018;23.986;2023-09-18T06:53:06;23.00;;;16.60;;
2213;SDS011;1113;42.018;23.986;2023-09-18T06:55:33;26.70;;;18.53;;
2213;SDS011;1113;42.018;23.986;2023-09-18T06:58:00;22.03;;;17.77;;
2213;SDS011;1113;42.018;23.986;2023-09-18T07:00:27;25.70;;;18.47;;
2213;SDS011;1113;42.018;23.986;2023-09-18T07:02:55;22.30;;;17.73;;
2213;SDS011;1113;42.018;23.986;2023-09-18T07:05:22;28.37;;;18.53;;
2213;SDS011;1113;42.018;23.986;2023-09-18T07:07:49;24.40;;;17.70;;
2213;SDS011;1113;42.018;23.986;2023-09-18T07:10:18;19.90;;;14.30;;
2213;SDS011;1113;42.018;23.986;2023-09-18T07:12:45;18.20;;;13.10;;
2213;SDS011;1113;42.018;23.986;2023-09-18T07:15:12;20.60;;;13.73;;
2213;SDS011;1113;42.018;23.986;2023-09-18T07:17:39;18.20;;;12.83;;
2213;SDS011;1113;42.018;23.986;2023-09-18T07:20:07;32.20;;;15.37;;
2213;SDS011;1113;42.018;23.986;2023-09-18T07:22:39;17.10;;;13.73;;
2213;SDS011;1113;42.018;23.986;2023-09-18T07:25:06;17.97;;;14.73;;
2213;SDS011;1113;42.018;23.986;2023-09-18T07:27:36;33.33;;;16.40;;
2213;SDS011;1113;42.018;23.986;2023-09-18T07:30:06;22.67;;;16.10;;
2213;SDS011;1113;42.018;23.986;2023-09-18T07:32:35;19.73;;;14.47;;
2213;SDS011;1113;42.018;23.986;2023-09-18T07:35:03;16.57;;;12.17;;
2213;SDS011;1113;42.018;23.986;2023-09-18T07:37:30;15.00;;;11.50;;
2213;SDS011;1113;42.018;23.986;2023-09-18T07:39:57;17.27;;;12.90;;
2213;SDS011;1113;42.018;23.986;2023-09-18T07:42:25;13.53;;;11.53;;
2213;SDS011;1113;42.018;23.986;2023-09-18T07:44:54;15.10;;;11.87;;
2213;SDS011;1113;42.018;23.986;2023-09-18T07:47:21;11.70;;;9.97;;
2213;SDS011;1113;42.018;23.986;2023-09-18T07:49:48;13.30;;;9.47;;
2213;SDS011;1113;42.018;23.986;2023-09-18T07:52:15;13.03;;;9.03;;
2213;SDS011;1113;42.018;23.986;2023-09-18T07:54:45;14.43;;;10.20;;
2213;SDS011;1113;42.018;23.986;2023-09-18T07:57:13;13.77;;;10.53;;
2213;SDS011;1113;42.018;23.986;2023-09-18T07:59:40;16.80;;;11.00;;
2213;SDS011;1113;42.018;23.986;2023-09-18T08:02:09;14.83;;;11.40;;
2213;SDS011;1113;42.018;23.986;2023-09-18T08:04:37;14.63;;;11.13;;
2213;SDS011;1113;42.018;23.986;2023-09-18T08:07:04;12.90;;;9.07;;
2213;SDS011;1113;42.018;23.986;2023-09-18T08:09:32;16.20;;;9.97;;
2213;SDS011;1113;42.018;23.986;2023-09-18T08:12:01;11.00;;;8.33;;
2213;SDS011;1113;42.018;23.986;2023-09-18T08:14:29;16.50;;;9.60;;
2213;SDS011;1113;42.018;23.986;2023-09-18T08:16:56;10.10;;;8.73;;
2213;SDS011;1113;42.018;23.986;2023-09-18T08:19:25;11.40;;;8.50;;
2213;SDS011;1113;42.018;23.986;2023-09-18T08:21:53;15.03;;;9.10;;
2213;SDS011;1113;42.018;23.986;2023-09-18T08:24:22;11.13;;;7.97;;
2213;SDS011;1113;42.018;23.986;2023-09-18T08:26:49;12.83;;;9.40;;
2213;SDS011;1113;42.018;23.986;2023-09-18T08:29:17;9.73;;;8.47;;
2213;SDS011;1113;42.018;23.986;2023-09-18T08:31:44;10.03;;;8.37;;
2213;SDS011;1113;42.018;23.986;2023-09-18T08:34:12;16.37;;;9.10;;
2213;SDS011;1113;42.018;23.986;2023-09-18T08:36:41;10.93;;;9.70;;
2213;SDS011;1113;42.018;23.986;2023-09-18T08:39:08;63.20;;;13.73;;
2213;SDS011;1113;42.018;23.986;2023-09-18T08:41:37;13.27;;;8.73;;
2213;SDS011;1113;42.018;23.986;2023-09-18T08:44:08;9.90;;;7.93;;
2213;SDS011;1113;42.018;23.986;2023-09-18T08:46:36;14.73;;;9.50;;
2213;SDS011;1113;42.018;23.986;2023-09-18T08:49:04;11.87;;;8.50;;
2213;SDS011;1113;42.018;23.986;2023-09-18T08:51:32;9.37;;;8.07;;
2213;SDS011;1113;42.018;23.986;2023-09-18T08:54:02;10.70;;;7.67;;
2213;SDS011;1113;42.018;23.986;2023-09-18T08:56:31;13.23;;;7.70;;
2213;SDS011;1113;42.018;23.986;2023-09-18T08:59:00;8.87;;;7.10;;
2213;SDS011;1113;42.018;23.986;2023-09-18T09:01:27;9.10;;;6.40;;
2213;SDS011;1113;42.018;23.986;2023-09-18T09:03:54;10.50;;;6.90;;
2213;SDS011;1113;42.018;23.986;2023-09-18T09:06:21;9.77;;;7.20;;
2213;SDS011;1113;42.018;23.986;2023-09-18T09:08:49;10.47;;;7.27;;
2213;SDS011;1113;42.018;23.986;2023-09-18T09:11:18;9.40;;;7.13;;
2213;SDS011;1113;42.018;23.986;2023-09-18T09:13:45;9.73;;;6.90;;
2213;SDS011;1113;42.018;23.986;2023-09-18T09:16:13;9.10;;;6.30;;
2213;SDS011;1113;42.018;23.986;2023-09-18T09:18:47;8.93;;;5.83;;
2213;SDS011;1113;42.018;23.986;2023-09-18T09:21:15;8.30;;;5.70;;
2213;SDS011;1113;42.018;23.986;2023-09-18T09:23:46;10.10;;;6.00;;
2213;SDS011;1113;42.018;23.986;2023-09-18T09:26:18;8.40;;;5.50;;
2213;SDS011;1113;42.018;23.986;2023-09-18T09:28:47;7.43;;;5.43;;
2213;SDS011;1113;42.018;23.986;2023-09-18T09:31:22;13.27;;;5.97;;
2213;SDS011;1113;42.018;23.986;2023-09-18T09:33:52;8.20;;;5.47;;
2213;SDS011;1113;42.018;23.986;2023-09-18T09:36:21;7.47;;;5.47;;
2213;SDS011;1113;42.018;23.986;2023-09-18T09:38:48;8.07;;;5.70;;
2213;SDS011;1113;42.018;23.986;2023-09-18T09:41:22;6.70;;;5.10;;
2213;SDS011;1113;42.018;23.986;2023-09-18T09:43:49;6.13;;;5.27;;
2213;SDS011;1113;42.018;23.986;2023-09-18T09:46:17;7.10;;;5.27;;
2213;SDS011;1113;42.018;23.986;2023-09-18T09:48:59;5.97;;;4.37;;
2213;SDS011;1113;42.018;23.986;2023-09-18T09:51:27;6.53;;;4.53;;
2213;SDS011;1113;42.018;23.986;2023-09-18T09:53:55;6.43;;;4.77;;
2213;SDS011;1113;42.018;23.986;2023-09-18T09:59:11;9.17;;;5.07;;
2213;SDS011;1113;42.018;23.986;2023-09-18T10:01:40;9.47;;;5.23;;
2213;SDS011;1113;42.018;23.986;2023-09-18T10:04:10;6.20;;;5.60;;
2213;SDS011;1113;42.018;23.986;2023-09-18T10:06:42;7.40;;;5.27;;
2213;SDS011;1113;42.018;23.986;2023-09-18T10:09:12;7.20;;;5.87;;
2213;SDS011;1113;42.018;23.986;2023-09-18T10:11:40;10.20;;;5.67;;
2213;SDS011;1113;42.018;23.986;2023-09-18T10:14:14;6.93;;;5.30;;
2213;SDS011;1113;42.018;23.986;2023-09-18T10:16:45;12.90;;;5.87;;
2213;SDS011;1113;42.018;23.986;2023-09-18T10:19:20;7.27;;;5.63;;
2213;SDS011;1113;42.018;23.986;2023-09-18T10:21:57;7.87;;;5.50;;
2213;SDS011;1113;42.018;23.986;2023-09-18T10:24:36;7.40;;;5.43;;
2213;SDS011;1113;42.018;23.986;2023-09-18T10:27:06;6.70;;;5.10;;
2213;SDS011;1113;42.018;23.986;2023-09-18T10:29:36;8.10;;;5.23;;
2213;SDS011;1113;42.018;23.986;2023-09-18T10:32:04;6.60;;;5.30;;
2213;SDS011;1113;42.018;23.986;2023-09-18T10:34:33;7.90;;;6.20;;
2213;SDS011;1113;42.018;23.986;2023-09-18T10:37:01;6.87;;;5.80;;
2213;SDS011;1113;42.018;23.986;2023-09-18T10:39:31;7.60;;;5.27;;
2213;SDS011;1113;42.018;23.986;2023-09-18T10:42:02;6.23;;;5.60;;
2213;SDS011;1113;42.018;23.986;2023-09-18T10:44:31;6.10;;;5.50;;
2213;SDS011;1113;42.018;23.986;2023-09-18T10:47:00;7.63;;;6.40;;
2213;SDS011;1113;42.018;23.986;2023-09-18T10:49:30;8.43;;;6.73;;
2213;SDS011;1113;42.018;23.986;2023-09-18T10:51:59;6.87;;;5.60;;
2213;SDS011;1113;42.018;23.986;2023-09-18T10:54:27;10.07;;;5.77;;
2213;SDS011;1113;42.018;23.986;2023-09-18T10:56:56;11.17;;;6.50;;
2213;SDS011;1113;42.018;23.986;2023-09-18T10:59:24;7.47;;;5.50;;
2213;SDS011;1113;42.018;23.986;2023-09-18T11:01:51;7.33;;;5.00;;
2213;SDS011;1113;42.018;23.986;2023-09-18T11:04:20;11.20;;;6.13;;
2213;SDS011;1113;42.018;23.986;2023-09-18T11:07:00;9.23;;;5.87;;
2213;SDS011;1113;42.018;23.986;2023-09-18T11:09:30;10.60;;;5.47;;
2213;SDS011;1113;42.018;23.986;2023-09-18T11:12:02;6.70;;;5.93;;
2213;SDS011;1113;42.018;23.986;2023-09-18T11:14:46;7.90;;;5.60;;
2213;SDS011;1113;42.018;23.986;2023-09-18T11:17:32;9.30;;;5.43;;
2213;SDS011;1113;42.018;23.986;2023-09-18T11:20:03;7.13;;;5.43;;
2213;SDS011;1113;42.018;23.986;2023-09-18T11:22:39;7.50;;;4.70;;
2213;SDS011;1113;42.018;23.986;2023-09-18T11:25:30;9.53;;;5.73;;
2213;SDS011;1113;42.018;23.986;2023-09-18T11:28:02;7.00;;;5.27;;
2213;SDS011;1113;42.018;23.986;2023-09-18T11:30:31;6.20;;;5.00;;
2213;SDS011;1113;42.018;23.986;2023-09-18T11:33:01;7.57;;;4.97;;
2213;SDS011;1113;42.018;23.986;2023-09-18T11:35:31;6.03;;;5.03;;
2213;SDS011;1113;42.018;23.986;2023-09-18T11:38:06;7.43;;;5.27;;
2213;SDS011;1113;42.018;23.986;2023-09-18T11:40:35;5.30;;;4.80;;
2213;SDS011;1113;42.018;23.986;2023-09-18T11:43:18;4.90;;;4.40;;
2213;SDS011;1113;42.018;23.986;2023-09-18T11:45:55;6.73;;;4.97;;
2213;SDS011;1113;42.018;23.986;2023-09-18T11:48:23;6.37;;;4.63;;
2213;SDS011;1113;42.018;23.986;2023-09-18T11:50:57;9.50;;;5.30;;
2213;SDS011;1113;42.018;23.986;2023-09-18T11:53:26;6.17;;;4.27;;
2213;SDS011;1113;42.018;23.986;2023-09-18T11:55:54;7.53;;;4.63;;
2213;SDS011;1113;42.018;23.986;2023-09-18T11:58:21;8.57;;;5.17;;
2213;SDS011;1113;42.018;23.986;2023-09-18T12:00:49;5.57;;;4.17;;
2213;SDS011;1113;42.018;23.986;2023-09-18T12:03:17;6.70;;;4.50;;
2213;SDS011;1113;42.018;23.986;2023-09-18T12:05:53;6.33;;;4.67;;
2213;SDS011;1113;42.018;23.986;2023-09-18T12:08:24;6.97;;;4.87;;
2213;SDS011;1113;42.018;23.986;2023-09-18T12:10:53;7.93;;;4.83;;
2213;SDS011;1113;42.018;23.986;2023-09-18T12:13:20;7.77;;;5.17;;
2213;SDS011;1113;42.018;23.986;2023-09-18T12:15:48;7.90;;;4.63;;
2213;SDS011;1113;42.018;23.986;2023-09-18T12:18:15;6.47;;;4.97;;
2213;SDS011;1113;42.018;23.986;2023-09-18T12:20:46;6.80;;;5.00;;
2213;SDS011;1113;42.018;23.986;2023-09-18T12:23:14;6.30;;;5.10;;
2213;SDS011;1113;42.018;23.986;2023-09-18T12:25:46;8.50;;;5.60;;
2213;SDS011;1113;42.018;23.986;2023-09-18T12:28:17;6.47;;;5.50;;
2213;SDS011;1113;42.018;23.986;2023-09-18T12:30:44;9.87;;;5.60;;
2213;SDS011;1113;42.018;23.986;2023-09-18T12:33:12;11.00;;;5.77;;
2213;SDS011;1113;42.018;23.986;2023-09-18T12:35:40;8.23;;;5.20;;
2213;SDS011;1113;42.018;23.986;2023-09-18T12:38:13;7.70;;;6.23;;
2213;SDS011;1113;42.018;23.986;2023-09-18T12:40:41;12.07;;;6.27;;
2213;SDS011;1113;42.018;23.986;2023-09-18T12:43:13;9.97;;;5.77;;
2213;SDS011;1113;42.018;23.986;2023-09-18T12:45:42;10.73;;;6.30;;
2213;SDS011;1113;42.018;23.986;2023-09-18T12:48:11;6.07;;;4.90;;
2213;SDS011;1113;42.018;23.986;2023-09-18T12:50:39;7.23;;;6.40;;
2213;SDS011;1113;42.018;23.986;2023-09-18T12:53:06;8.30;;;5.50;;
2213;SDS011;1113;42.018;23.986;2023-09-18T12:55:35;15.10;;;6.40;;
2213;SDS011;1113;42.018;23.986;2023-09-18T12:58:03;7.47;;;5.40;;
2213;SDS011;1113;42.018;23.986;2023-09-18T13:00:34;6.60;;;5.40;;
2213;SDS011;1113;42.018;23.986;2023-09-18T13:03:02;7.80;;;5.40;;
2213;SDS011;1113;42.018;23.986;2023-09-18T13:05:31;6.20;;;5.47;;
2213;SDS011;1113;42.018;23.986;2023-09-18T13:08:03;6.80;;;5.27;;
2213;SDS011;1113;42.018;23.986;2023-09-18T13:10:40;8.10;;;5.37;;
2213;SDS011;1113;42.018;23.986;2023-09-18T13:13:15;6.97;;;5.80;;
2213;SDS011;1113;42.018;23.986;2023-09-18T13:15:44;7.00;;;5.80;;
2213;SDS011;1113;42.018;23.986;2023-09-18T13:18:13;8.07;;;6.00;;
2213;SDS011;1113;42.018;23.986;2023-09-18T13:20:40;9.97;;;5.53;;
2213;SDS011;1113;42.018;23.986;2023-09-18T13:23:08;5.73;;;5.00;;
2213;SDS011;1113;42.018;23.986;2023-09-18T13:25:36;5.80;;;5.10;;
2213;SDS011;1113;42.018;23.986;2023-09-18T13:28:05;5.60;;;5.10;;
2213;SDS011;1113;42.018;23.986;2023-09-18T13:30:34;7.40;;;5.00;;
2213;SDS011;1113;42.018;23.986;2023-09-18T13:33:06;6.27;;;5.20;;
2213;SDS011;1113;42.018;23.986;2023-09-18T13:35:35;8.33;;;5.30;;
2213;SDS011;1113;42.018;23.986;2023-09-18T13:38:04;7.07;;;5.27;;
2213;SDS011;1113;42.018;23.986;2023-09-18T13:40:33;8.67;;;5.20;;
2213;SDS011;1113;42.018;23.986;2023-09-18T13:43:01;7.90;;;4.80;;
2213;SDS011;1113;42.018;23.986;2023-09-18T13:45:30;5.30;;;4.80;;
2213;SDS011;1113;42.018;23.986;2023-09-18T13:47:57;5.10;;;4.60;;
2213;SDS011;1113;42.018;23.986;2023-09-18T13:50:25;5.90;;;5.07;;
2213;SDS011;1113;42.018;23.986;2023-09-18T13:52:53;7.10;;;5.10;;
2213;SDS011;1113;42.018;23.986;2023-09-18T13:55:20;6.63;;;4.40;;
2213;SDS011;1113;42.018;23.986;2023-09-18T13:57:47;7.13;;;5.17;;
2213;SDS011;1113;42.018;23.986;2023-09-18T14:00:15;6.03;;;4.40;;
2213;SDS011;1113;42.018;23.986;2023-09-18T14:02:43;6.50;;;5.23;;
2213;SDS011;1113;42.018;23.986;2023-09-18T14:05:10;5.53;;;4.50;;
2213;SDS011;1113;42.018;23.986;2023-09-18T14:07:40;5.43;;;4.90;;
2213;SDS011;1113;42.018;23.986;2023-09-18T14:10:07;6.30;;;4.50;;
2213;SDS011;1113;42.018;23.986;2023-09-18T14:12:36;6.13;;;4.10;;
2213;SDS011;1113;42.018;23.986;2023-09-18T14:15:04;5.10;;;4.00;;
2213;SDS011;1113;42.018;23.986;2023-09-18T14:17:32;4.90;;;4.03;;
2213;SDS011;1113;42.018;23.986;2023-09-18T14:19:59;4.83;;;4.30;;
2213;SDS011;1113;42.018;23.986;2023-09-18T14:22:26;5.00;;;4.50;;
2213;SDS011;1113;42.018;23.986;2023-09-18T14:24:55;5.23;;;4.60;;
2213;SDS011;1113;42.018;23.986;2023-09-18T14:27:22;7.40;;;4.43;;
2213;SDS011;1113;42.018;23.986;2023-09-18T14:29:49;4.47;;;3.50;;
2213;SDS011;1113;42.018;23.986;2023-09-18T14:32:16;7.13;;;3.63;;
2213;SDS011;1113;42.018;23.986;2023-09-18T14:34:44;4.57;;;3.70;;
2213;SDS011;1113;42.018;23.986;2023-09-18T14:37:12;6.50;;;3.77;;
2213;SDS011;1113;42.018;23.986;2023-09-18T14:39:39;4.17;;;3.07;;
2213;SDS011;1113;42.018;23.986;2023-09-18T14:42:08;9.33;;;3.50;;
2213;SDS011;1113;42.018;23.986;2023-09-18T14:44:35;6.37;;;3.90;;
2213;SDS011;1113;42.018;23.986;2023-09-18T14:47:05;5.80;;;3.57;;
2213;SDS011;1113;42.018;23.986;2023-09-18T14:49:32;4.70;;;2.90;;
2213;SDS011;1113;42.018;23.986;2023-09-18T14:51:59;3.87;;;2.87;;
2213;SDS011;1113;42.018;23.986;2023-09-18T14:54:26;4.70;;;2.80;;
2213;SDS011;1113;42.018;23.986;2023-09-18T14:56:53;4.67;;;2.80;;